Time;durP1;ratioP1;P1;durP2;ratioP2;P2;SDS_P1;SDS_P2;PMS_P1;PMS_P2;Temp;Humidity;BMP_temperature;BMP_pressure;BME280_temperature;BME280_humidity;BME280_pressure;Samples;Min_cycle;Max_cycle;Signal;HPM_P1;HPM_P2
2023/03/28 00:01:10;;;;;;;0.90;0.90;;;4.10;99.90;;;3.99;nan;101609.88;4983494;28;20224;-69
2023/03/28 00:03:41;;;;;;;1.20;1.10;;;4.10;99.90;;;3.98;nan;101612.50;4987466;28;20235;-68
2023/03/28 00:06:12;;;;;;;1.27;1.25;;;4.10;99.90;;;3.90;nan;101612.72;4988669;28;20208;-67
2023/03/28 00:08:39;;;;;;;0.50;0.50;;;4.10;99.90;;;3.76;nan;101614.84;4991991;28;20277;-68
2023/03/28 00:11:18;;;;;;;0.73;0.73;;;3.90;99.90;;;3.70;nan;101622.78;4991139;28;20207;-68
2023/03/28 00:13:48;;;;;;;0.75;0.75;;;3.80;99.90;;;3.66;nan;101618.59;4991963;28;20203;-69
2023/03/28 00:16:15;;;;;;;1.20;0.60;;;3.80;99.90;;;3.62;nan;101614.41;4991634;28;20203;-68
2023/03/28 00:18:42;;;;;;;2.80;1.02;;;3.70;99.90;;;3.63;nan;101626.41;4993022;28;20210;-69
2023/03/28 00:21:28;;;;;;;0.95;0.50;;;3.70;99.90;;;3.61;nan;101625.59;4982160;28;20575;-68
2023/03/28 00:24:00;;;;;;;0.82;0.82;;;3.80;99.90;;;3.58;nan;101631.69;4991189;28;20308;-68
2023/03/28 00:26:34;;;;;;;1.75;1.20;;;3.70;99.90;;;3.66;nan;101641.81;4986147;28;20199;-69
2023/03/28 00:29:04;;;;;;;0.73;0.73;;;3.80;99.90;;;3.70;nan;101640.84;4991564;28;20195;-69
2023/03/28 00:31:33;;;;;;;0.73;0.73;;;3.80;99.90;;;3.72;nan;101642.50;4988887;28;20207;-68
2023/03/28 00:34:00;;;;;;;1.00;0.65;;;3.80;99.90;;;3.74;nan;101642.44;4990489;28;20600;-69
2023/03/28 00:36:31;;;;;;;1.90;1.15;;;3.90;99.90;;;3.73;nan;101645.91;4975045;28;20212;-69
2023/03/28 00:39:00;;;;;;;1.60;0.50;;;3.90;99.90;;;3.73;nan;101646.75;4978622;28;20200;-67
2023/03/28 00:41:31;;;;;;;1.45;1.00;;;3.90;99.90;;;3.70;nan;101646.00;4975929;28;20277;-66
2023/03/28 00:43:59;;;;;;;2.50;1.33;;;3.80;99.90;;;3.67;nan;101643.50;4985776;28;20236;-70
2023/03/28 00:46:40;;;;;;;2.58;1.10;;;3.90;99.90;;;3.65;nan;101651.28;4986948;28;20206;-67
2023/03/28 00:49:20;;;;;;;0.60;0.60;;;3.80;99.90;;;3.63;nan;101653.06;5005616;28;20245;-69
2023/03/28 00:51:56;;;;;;;0.73;0.73;;;3.80;99.90;;;3.60;nan;101650.56;4998783;28;20206;-68
2023/03/28 00:54:27;;;;;;;0.60;0.60;;;3.80;99.90;;;3.48;nan;101648.31;4985395;28;20219;-67
2023/03/28 00:57:00;;;;;;;0.65;0.65;;;3.70;99.90;;;3.40;nan;101644.25;4969886;28;20216;-67
2023/03/28 00:59:32;;;;;;;1.20;0.70;;;3.60;99.90;;;3.33;nan;101653.03;4991232;28;20584;-67
2023/03/28 01:02:00;;;;;;;0.75;0.75;;;3.50;99.90;;;3.27;nan;101648.03;4990793;28;20207;-67
2023/03/28 01:04:37;;;;;;;1.25;0.50;;;3.40;99.90;;;3.24;nan;101656.69;4990580;28;20250;-69
2023/03/28 01:07:04;;;;;;;1.27;0.88;;;3.40;99.90;;;3.22;nan;101653.31;5004992;28;20688;-67
2023/03/28 01:09:32;;;;;;;0.50;0.50;;;3.40;99.90;;;3.17;nan;101652.59;4990744;28;20196;-67
2023/03/28 01:12:00;;;;;;;0.63;0.55;;;3.40;99.90;;;3.17;nan;101650.84;4987061;28;20234;-68
2023/03/28 01:14:29;;;;;;;0.60;0.60;;;3.40;99.90;;;3.16;nan;101648.31;4971286;28;20616;-70
2023/03/28 01:16:56;;;;;;;1.02;1.00;;;3.30;99.90;;;3.14;nan;101652.66;4992941;28;20681;-67
2023/03/28 01:19:57;;;;;;;0.57;0.57;;;3.30;99.90;;;3.11;nan;101651.00;4990416;28;20207;-67
2023/03/28 01:23:02;;;;;;;1.00;0.80;;;3.30;99.90;;;3.07;nan;101646.81;4989412;28;20199;-67
2023/03/28 01:26:01;;;;;;;1.02;0.60;;;3.30;99.90;;;3.03;nan;101652.94;5035505;23;20715;-67
2023/03/28 01:29:20;;;;;;;0.98;0.98;;;3.20;99.90;;;3.05;nan;101653.75;5011174;28;20211;-67
2023/03/28 01:32:05;;;;;;;0.50;0.50;;;3.30;99.90;;;3.05;nan;101660.63;4982366;28;20206;-66
2023/03/28 01:35:05;;;;;;;0.60;0.57;;;3.30;99.90;;;3.04;nan;101661.53;5009947;28;20226;-67
2023/03/28 01:37:53;;;;;;;1.02;0.90;;;3.20;99.90;;;3.05;nan;101661.47;5010131;28;20207;-63
2023/03/28 01:40:49;;;;;;;3.28;0.73;;;3.20;99.90;;;3.02;nan;101664.13;5000794;28;20213;-67
2023/03/28 01:43:29;;;;;;;0.75;0.75;;;3.20;99.90;;;3.01;nan;101661.59;4994078;28;20211;-66
2023/03/28 01:46:31;;;;;;;0.50;0.38;;;3.20;99.90;;;3.01;nan;101666.75;4995152;28;20702;-66
2023/03/28 01:49:20;;;;;;;0.70;0.52;;;3.20;99.90;;;3.02;nan;101661.53;4991154;28;20268;-66
2023/03/28 01:51:58;;;;;;;0.70;0.70;;;3.20;99.90;;;3.02;nan;101661.53;4975565;28;20223;-67
2023/03/28 01:54:40;;;;;;;0.75;0.75;;;3.20;99.90;;;3.02;nan;101674.44;5001391;28;20222;-65
2023/03/28 01:57:14;;;;;;;0.85;0.85;;;3.20;99.90;;;3.04;nan;101672.69;4995202;28;20203;-66
2023/03/28 01:59:59;;;;;;;0.60;0.60;;;3.20;99.90;;;3.07;nan;101672.59;4992820;28;20202;-66
2023/03/28 02:02:42;;;;;;;0.63;0.63;;;3.30;99.90;;;3.08;nan;101678.59;4999846;28;20198;-65
2023/03/28 02:05:13;;;;;;;0.88;0.63;;;3.30;99.90;;;3.06;nan;101678.66;5030209;28;20256;-65
2023/03/28 02:07:43;;;;;;;1.70;0.50;;;3.30;99.90;;;3.03;nan;101673.56;4990833;28;20216;-66
2023/03/28 02:10:12;;;;;;;0.63;0.63;;;3.30;99.90;;;3.04;nan;101677.84;4979587;28;20211;-67
2023/03/28 02:12:47;;;;;;;0.70;0.70;;;3.20;99.90;;;3.05;nan;101668.34;5002492;28;20215;-66
2023/03/28 02:15:18;;;;;;;0.63;0.63;;;3.30;99.90;;;3.10;nan;101669.09;4973330;28;20223;-67
2023/03/28 02:17:53;;;;;;;0.82;0.82;;;3.30;99.90;;;3.13;nan;101674.19;4974650;28;20227;-66
2023/03/28 02:20:25;;;;;;;0.82;0.80;;;3.30;99.90;;;3.10;nan;101666.53;5002107;28;20827;-67
2023/03/28 02:23:08;;;;;;;0.85;0.85;;;3.30;99.90;;;3.05;nan;101658.91;4992749;28;20665;-66
2023/03/28 02:25:36;;;;;;;0.98;0.98;;;3.30;99.90;;;3.03;nan;101663.25;5005406;28;20237;-66
2023/03/28 02:28:06;;;;;;;0.65;0.65;;;3.20;99.90;;;3.02;nan;101668.44;5013718;28;20665;-66
2023/03/28 02:30:35;;;;;;;1.00;0.95;;;3.20;99.90;;;3.00;nan;101660.72;5022859;28;20218;-65
2023/03/28 02:33:10;;;;;;;0.70;0.60;;;3.20;99.90;;;2.94;nan;101660.88;5013267;28;20681;-66
2023/03/28 02:36:01;;;;;;;0.57;0.57;;;3.10;99.90;;;2.90;nan;101663.56;5027056;28;20291;-66
2023/03/28 02:39:02;;;;;;;0.68;0.68;;;3.10;99.90;;;2.86;nan;101664.53;4993101;28;20207;-66
2023/03/28 02:42:25;;;;;;;0.75;0.73;;;3.10;99.90;;;2.84;nan;101663.72;4987913;28;20199;-67
2023/03/28 02:45:09;;;;;;;0.93;0.85;;;3.10;99.90;;;2.80;nan;101672.41;4991781;28;20231;-66
2023/03/28 02:48:03;;;;;;;1.52;0.60;;;3.00;99.90;;;2.75;nan;101672.50;4989573;28;20207;-66
2023/03/28 02:50:43;;;;;;;0.75;0.75;;;3.00;99.90;;;2.73;nan;101668.28;4988611;28;20196;-66
2023/03/28 02:53:16;;;;;;;0.75;0.75;;;2.90;99.90;;;2.70;nan;101676.09;4974128;28;20850;-66
2023/03/28 02:56:04;;;;;;;1.83;0.60;;;2.90;99.90;;;2.67;nan;101669.28;4986153;28;20721;-66
2023/03/28 02:58:59;;;;;;;0.50;0.50;;;2.90;99.90;;;2.66;nan;101669.31;5005168;28;20738;-67
2023/03/28 03:01:28;;;;;;;0.80;0.80;;;2.90;99.90;;;2.57;nan;101662.66;4988853;28;20690;-66
2023/03/28 03:03:56;;;;;;;0.98;0.75;;;2.80;99.90;;;2.58;nan;101666.91;4988364;28;20246;-68
2023/03/28 03:06:24;;;;;;;0.50;0.50;;;2.80;99.90;;;2.61;nan;101673.72;4996158;28;20223;-66
2023/03/28 03:08:51;;;;;;;0.73;0.73;;;2.80;99.90;;;2.59;nan;101668.59;4992648;28;20196;-66
2023/03/28 03:11:18;;;;;;;0.50;0.50;;;2.80;99.90;;;2.62;nan;101662.53;4992850;28;20262;-66
2023/03/28 03:13:45;;;;;;;1.05;1.05;;;2.80;99.90;;;2.64;nan;101663.34;4993938;28;20218;-68
2023/03/28 03:16:12;;;;;;;1.23;0.88;;;2.90;99.90;;;2.66;nan;101670.16;4987996;28;20227;-66
2023/03/28 03:18:39;;;;;;;1.10;1.00;;;2.90;99.90;;;2.70;nan;101674.38;4992193;28;20692;-66
2023/03/28 03:21:06;;;;;;;2.45;1.13;;;2.90;99.90;;;2.70;nan;101666.66;5003828;28;20213;-66
2023/03/28 03:23:33;;;;;;;1.67;0.73;;;2.90;99.90;;;2.77;nan;101667.34;5007581;28;20559;-68
2023/03/28 03:26:00;;;;;;;1.23;0.93;;;3.00;99.90;;;2.77;nan;101659.63;5012586;28;20242;-66
2023/03/28 03:28:27;;;;;;;0.80;0.73;;;3.00;99.90;;;2.73;nan;101663.97;5011752;28;20796;-68
2023/03/28 03:30:54;;;;;;;1.45;1.00;;;2.90;99.90;;;2.76;nan;101663.06;5013442;28;20206;-67
2023/03/28 03:33:21;;;;;;;0.77;0.77;;;2.90;99.90;;;2.75;nan;101664.78;5011997;28;20205;-66
2023/03/28 03:35:48;;;;;;;1.00;1.00;;;2.90;99.90;;;2.72;nan;101664.03;5002440;28;20235;-66
2023/03/28 03:38:16;;;;;;;1.55;1.05;;;3.00;99.90;;;2.68;nan;101668.41;4992709;28;20215;-66
2023/03/28 03:40:42;;;;;;;2.85;1.08;;;2.90;99.90;;;2.64;nan;101663.34;4992114;28;20211;-66
2023/03/28 03:43:10;;;;;;;1.30;1.30;;;2.80;99.90;;;2.65;nan;101659.88;4981997;28;20264;-66
2023/03/28 03:45:39;;;;;;;1.35;1.25;;;2.80;99.90;;;2.62;nan;101658.22;4988788;28;20227;-66
2023/03/28 03:48:06;;;;;;;1.10;1.10;;;2.90;99.90;;;2.65;nan;101654.72;5012024;28;20217;-68
2023/03/28 03:50:33;;;;;;;0.95;0.90;;;2.80;99.90;;;2.66;nan;101661.59;5011639;28;20203;-67
2023/03/28 03:53:00;;;;;;;1.20;1.10;;;2.90;99.90;;;2.69;nan;101653.78;4992785;28;20211;-67
2023/03/28 03:55:27;;;;;;;0.80;0.80;;;2.90;99.90;;;2.66;nan;101662.41;4991896;28;20235;-66
2023/03/28 03:57:54;;;;;;;1.10;1.10;;;2.90;99.90;;;2.62;nan;101668.53;4992318;28;20216;-66
2023/03/28 04:00:21;;;;;;;0.98;0.75;;;2.80;99.90;;;2.56;nan;101671.25;4993210;28;20677;-66
2023/03/28 04:02:48;;;;;;;1.00;0.88;;;2.80;99.90;;;2.47;nan;101668.03;4993019;28;20253;-66
2023/03/28 04:05:15;;;;;;;2.10;0.95;;;2.70;99.90;;;2.35;nan;101672.56;4990473;28;20231;-66
2023/03/28 04:07:42;;;;;;;0.75;0.75;;;2.60;99.90;;;2.27;nan;101674.47;4991843;28;20250;-67
2023/03/28 04:10:09;;;;;;;0.50;0.50;;;2.50;99.90;;;2.26;nan;101674.50;4994941;28;20198;-65
2023/03/28 04:12:36;;;;;;;0.60;0.60;;;2.50;99.90;;;2.29;nan;101675.28;5011609;28;20529;-66
2023/03/28 04:15:05;;;;;;;1.15;0.70;;;2.50;99.90;;;2.33;nan;101676.06;4990397;28;20316;-66
2023/03/28 04:17:34;;;;;;;0.73;0.73;;;2.60;99.90;;;2.32;nan;101670.06;4986605;28;20203;-66
2023/03/28 04:20:10;;;;;;;1.13;0.75;;;2.50;99.90;;;2.34;nan;101688.06;4972033;28;20674;-66
2023/03/28 04:22:37;;;;;;;7.38;0.75;;;2.50;99.90;;;2.38;nan;101684.53;4988226;28;20229;-67
2023/03/28 04:25:12;;;;;;;0.80;0.80;;;2.60;99.90;;;2.40;nan;101682.78;4977407;28;20219;-66
2023/03/28 04:27:40;;;;;;;0.77;0.77;;;2.60;99.90;;;2.41;nan;101689.63;4992190;28;20207;-64
2023/03/28 04:30:09;;;;;;;1.30;1.05;;;2.60;99.90;;;2.40;nan;101689.66;4992439;28;20204;-66
2023/03/28 04:32:40;;;;;;;0.82;0.73;;;2.60;99.90;;;2.38;nan;101688.84;4988284;28;20216;-67
2023/03/28 04:35:07;;;;;;;0.95;0.93;;;2.50;99.90;;;2.36;nan;101696.63;4996258;28;20478;-67
2023/03/28 04:37:36;;;;;;;1.20;1.20;;;2.50;99.90;;;2.32;nan;101690.66;4984170;28;20204;-66
2023/03/28 04:40:10;;;;;;;1.85;1.73;;;2.50;99.90;;;2.30;nan;101695.00;4988415;28;20208;-67
2023/03/28 04:42:38;;;;;;;1.58;1.45;;;2.50;99.90;;;2.32;nan;101695.81;4991054;28;20221;-67
2023/03/28 04:45:07;;;;;;;2.78;1.42;;;2.50;99.90;;;2.32;nan;101695.81;5010263;28;20672;-66
2023/03/28 04:47:36;;;;;;;3.33;1.05;;;2.50;99.90;;;2.38;nan;101694.84;5010104;28;20194;-66
2023/03/28 04:50:03;;;;;;;2.05;0.90;;;2.60;99.90;;;2.43;nan;101699.91;5011665;28;20199;-67
2023/03/28 04:52:30;;;;;;;2.95;1.00;;;2.70;99.90;;;2.47;nan;101702.34;5008905;28;20202;-67
2023/03/28 04:54:57;;;;;;;0.90;0.90;;;2.70;99.90;;;2.48;nan;101709.22;4989410;28;20614;-67
2023/03/28 04:57:24;;;;;;;1.60;1.40;;;2.70;99.90;;;2.47;nan;101704.94;4993672;28;20207;-67
2023/03/28 04:59:51;;;;;;;2.25;0.60;;;2.70;99.90;;;2.50;nan;101710.03;4995360;28;20273;-68
2023/03/28 05:02:18;;;;;;;1.02;0.90;;;2.70;99.90;;;2.47;nan;101715.22;4992573;28;20238;-67
2023/03/28 05:04:46;;;;;;;1.95;0.95;;;2.70;99.90;;;2.42;nan;101719.66;4988351;28;20284;-67
2023/03/28 05:07:13;;;;;;;1.10;1.10;;;2.60;99.90;;;2.40;nan;101718.84;4989900;28;20695;-67
2023/03/28 05:09:40;;;;;;;0.85;0.85;;;2.60;99.90;;;2.38;nan;101716.28;4989922;28;20222;-64
2023/03/28 05:12:07;;;;;;;1.75;0.98;;;2.60;99.90;;;2.40;nan;101720.56;4991580;28;20200;-66
2023/03/28 05:14:35;;;;;;;0.80;0.80;;;2.60;99.90;;;2.38;nan;101718.84;4991203;28;20706;-65
2023/03/28 05:17:02;;;;;;;0.77;0.77;;;2.60;99.90;;;2.38;nan;101721.44;4989325;28;20274;-66
2023/03/28 05:19:29;;;;;;;0.52;0.52;;;2.60;99.90;;;2.42;nan;101722.22;4994158;28;20203;-67
2023/03/28 05:21:56;;;;;;;1.40;1.00;;;2.70;99.90;;;2.42;nan;101726.53;4991931;28;20591;-67
2023/03/28 05:24:22;;;;;;;0.52;0.52;;;2.60;99.90;;;2.45;nan;101734.22;4990638;28;20747;-67
2023/03/28 05:26:49;;;;;;;0.45;0.45;;;2.70;99.90;;;2.49;nan;101730.69;4994866;28;20208;-65
2023/03/28 05:29:16;;;;;;;0.73;0.55;;;2.70;99.90;;;2.55;nan;101731.41;5000735;28;20211;-67
2023/03/28 05:31:43;;;;;;;2.08;0.88;;;2.70;99.90;;;2.63;nan;101726.91;4990484;28;20207;-67
2023/03/28 05:34:10;;;;;;;1.60;0.70;;;2.80;99.90;;;2.79;nan;101733.41;4993000;28;21684;-64
2023/03/28 05:36:37;;;;;;;0.60;0.60;;;3.00;99.90;;;2.96;nan;101738.22;4990708;28;20629;-67
2023/03/28 05:39:04;;;;;;;1.60;0.80;;;3.10;99.90;;;3.19;nan;101743.66;4989726;28;20218;-66
2023/03/28 05:41:31;;;;;;;0.80;0.80;;;3.30;99.90;;;3.46;nan;101752.44;5000943;28;20673;-68
2023/03/28 05:43:58;;;;;;;1.70;0.70;;;3.50;99.90;;;3.73;nan;101756.91;4992036;28;20291;-67
2023/03/28 05:46:25;;;;;;;0.70;0.70;;;3.80;99.90;;;4.07;nan;101751.72;4989521;28;20237;-67
2023/03/28 05:48:51;;;;;;;0.85;0.85;;;4.10;99.90;;;4.50;nan;101757.34;4992811;28;20666;-66
2023/03/28 05:51:18;;;;;;;0.90;0.68;;;4.50;99.90;;;4.92;nan;101758.63;4972033;28;20226;-66
2023/03/28 05:53:45;;;;;;;2.10;0.73;;;5.00;99.90;;;5.39;nan;101751.94;4983410;28;20213;-66
2023/03/28 05:56:12;;;;;;;0.95;0.63;;;5.40;99.90;;;5.85;nan;101756.47;4993270;28;20231;-67
2023/03/28 05:58:40;;;;;;;1.00;0.93;;;5.80;99.90;;;6.22;nan;101765.47;4990364;28;20207;-66
2023/03/28 06:01:08;;;;;;;0.52;0.52;;;6.20;99.90;;;6.70;nan;101767.16;4991088;28;20265;-67
2023/03/28 06:03:38;;;;;;;1.08;0.98;;;6.70;99.90;;;7.26;nan;101770.97;4992278;28;20670;-65
2023/03/28 06:06:07;;;;;;;0.77;0.77;;;7.20;99.90;;;7.75;nan;101770.63;5005377;28;20231;-68
2023/03/28 06:08:34;;;;;;;2.75;0.65;;;7.70;99.90;;;8.35;nan;101777.56;5009674;28;21226;-67
2023/03/28 06:11:02;;;;;;;1.37;1.03;;;8.20;99.90;;;8.98;nan;101772.94;5000186;28;20203;-68
2023/03/28 06:13:29;;;;;;;0.83;0.83;;;8.80;99.90;;;9.58;nan;101779.53;4983925;28;20618;-67
2023/03/28 06:15:56;;;;;;;2.27;1.00;;;9.50;99.90;;;10.28;nan;101777.66;4996536;28;20657;-67
2023/03/28 06:18:23;;;;;;;1.57;0.83;;;10.10;99.90;;;10.94;nan;101781.03;4995523;28;20634;-66
2023/03/28 06:20:50;;;;;;;0.93;0.90;;;10.80;99.70;;;11.62;nan;101771.88;4989458;28;20634;-64
2023/03/28 06:23:17;;;;;;;1.13;0.93;;;11.50;98.00;;;12.18;nan;101771.97;4990439;28;20643;-65
2023/03/28 06:25:44;;;;;;;1.37;1.10;;;12.10;95.80;;;12.79;nan;101781.28;4992384;28;20670;-65
2023/03/28 06:28:11;;;;;;;3.40;1.67;;;12.70;94.00;;;13.41;nan;101780.75;4994276;28;21214;-64
2023/03/28 06:30:39;;;;;;;8.27;1.70;;;13.40;92.00;;;13.79;nan;101784.31;4998327;28;20625;-65
2023/03/28 06:33:06;;;;;;;1.70;1.10;;;13.90;90.60;;;14.31;nan;101788.66;4992300;28;20625;-68
2023/03/28 06:35:33;;;;;;;1.33;1.20;;;14.50;87.70;;;14.80;nan;101789.50;4993469;28;20723;-65
2023/03/28 06:38:00;;;;;;;2.10;1.30;;;15.00;83.70;;;15.17;nan;101788.53;5008122;28;20629;-67
2023/03/28 06:40:27;;;;;;;1.40;1.30;;;15.50;80.70;;;15.74;nan;101790.50;4997714;28;20708;-64
2023/03/28 06:42:54;;;;;;;3.30;1.77;;;16.00;78.30;;;16.24;nan;101795.38;4993997;28;20630;-64
2023/03/28 06:45:21;;;;;;;1.83;1.57;;;16.50;75.10;;;16.73;nan;101795.03;4988791;28;20728;-64
2023/03/28 06:47:50;;;;;;;2.30;1.80;;;16.90;72.60;;;16.92;nan;101790.81;4987675;28;21220;-65
2023/03/28 06:50:17;;;;;;;2.33;1.67;;;17.00;70.20;;;17.09;nan;101802.63;4994587;28;20630;-64
2023/03/28 06:52:44;;;;;;;2.50;1.50;;;17.20;69.60;;;17.38;nan;101802.88;4993392;28;20709;-66
2023/03/28 06:55:11;;;;;;;2.63;1.53;;;17.50;69.00;;;17.79;nan;101800.34;4995979;28;20665;-64
2023/03/28 06:57:38;;;;;;;2.23;1.90;;;17.90;66.60;;;17.72;nan;101807.94;5013832;28;21006;-65
2023/03/28 07:00:07;;;;;;;4.17;1.90;;;18.00;65.90;;;18.07;nan;101801.47;4997738;28;20700;-64
2023/03/28 07:02:34;;;;;;;2.10;1.90;;;18.30;65.00;;;18.37;nan;101799.72;4994512;28;20634;-64
2023/03/28 07:05:01;;;;;;;2.63;2.10;;;18.60;64.20;;;17.19;nan;101800.06;4993862;28;20660;-67
2023/03/28 07:07:28;;;;;;;5.17;2.27;;;17.80;63.40;;;16.01;nan;101798.94;4993908;28;20630;-63
2023/03/28 07:09:55;;;;;;;3.77;2.10;;;16.60;65.20;;;15.91;nan;101800.56;4994692;28;20626;-67
2023/03/28 07:12:22;;;;;;;1.80;1.70;;;16.20;66.60;;;16.10;nan;101800.81;4993855;28;20614;-67
2023/03/28 07:14:49;;;;;;;1.80;1.70;;;16.30;66.70;;;16.72;nan;101807.34;4996443;28;20649;-66
2023/03/28 07:17:16;;;;;;;2.43;2.00;;;16.80;66.80;;;17.45;nan;101811.97;5012681;28;20671;-66
2023/03/28 07:19:44;;;;;;;2.03;1.93;;;17.50;65.30;;;17.92;nan;101802.78;5010064;28;21490;-64
2023/03/28 07:22:12;;;;;;;2.10;1.97;;;18.10;63.10;;;18.38;nan;101809.28;5013566;28;20708;-65
2023/03/28 07:24:39;;;;;;;2.30;1.57;;;18.60;62.00;;;18.75;nan;101806.13;5045353;23;20645;-69
2023/03/28 07:27:08;;;;;;;2.13;1.80;;;19.10;60.90;;;18.95;nan;101811.34;5003733;28;20658;-68
2023/03/28 07:29:41;;;;;;;1.97;1.80;;;19.20;59.70;;;18.97;nan;101813.88;5011331;28;20629;-67
2023/03/28 07:32:10;;;;;;;2.30;1.90;;;;;;;19.44;nan;101820.22;5013131;28;20660;-68
2023/03/28 07:34:37;;;;;;;2.43;1.87;;;19.70;58.90;;;19.88;nan;101832.88;5005390;28;21020;-68
2023/03/28 07:37:04;;;;;;;2.27;2.07;;;20.10;58.10;;;20.02;nan;101830.63;4992420;28;20668;-69
2023/03/28 07:39:31;;;;;;;3.27;2.17;;;20.40;57.10;;;20.08;nan;101835.34;4998319;28;20644;-68
2023/03/28 07:41:58;;;;;;;5.13;2.50;;;20.60;56.40;;;20.05;nan;101838.31;5010819;28;20633;-69
2023/03/28 07:44:25;;;;;;;3.53;2.03;;;20.60;55.60;;;19.72;nan;101833.44;5005810;28;21192;-68
2023/03/28 07:46:53;;;;;;;1.77;1.67;;;20.30;55.40;;;19.38;nan;101834.03;5009374;28;20669;-68
2023/03/28 07:49:20;;;;;;;4.97;1.90;;;20.00;55.60;;;19.32;nan;101833.56;5012534;28;20624;-68
2023/03/28 07:51:47;;;;;;;3.00;1.87;;;19.90;55.70;;;19.62;nan;101837.91;5011924;28;20634;-68
2023/03/28 07:54:16;;;;;;;1.90;1.77;;;20.10;55.90;;;20.24;nan;101841.91;5011500;28;21198;-69
2023/03/28 07:56:47;;;;;;;3.17;2.13;;;20.60;55.40;;;20.62;nan;101839.13;5002104;28;20669;-68
2023/03/28 07:59:14;;;;;;;3.53;2.10;;;21.00;54.60;;;20.56;nan;101840.56;5012024;28;20621;-69
2023/03/28 08:01:44;;;;;;;1.77;1.67;;;21.00;53.80;;;20.53;nan;101838.19;5011222;28;21043;-68
2023/03/28 08:04:12;;;;;;;4.50;1.90;;;21.20;53.60;;;20.52;nan;101835.69;5012392;28;21217;-68
2023/03/28 08:06:40;;;;;;;5.50;1.60;;;21.30;52.90;;;20.78;nan;101850.78;5027382;28;20674;-69
2023/03/28 08:09:10;;;;;;;2.40;1.57;;;21.70;51.90;;;20.86;nan;101850.06;5012806;28;21240;-68
2023/03/28 08:11:39;;;;;;;2.80;1.50;;;21.80;51.80;;;20.89;nan;101853.25;5008210;28;20614;-68
2023/03/28 08:14:10;;;;;;;1.90;1.67;;;22.00;50.60;;;20.84;nan;101846.72;4992731;28;20613;-68
2023/03/28 08:16:37;;;;;;;1.83;1.70;;;22.00;50.50;;;21.54;nan;101848.66;5006201;28;20668;-68
2023/03/28 08:19:05;;;;;;;1.60;1.50;;;22.60;49.60;;;22.04;nan;101841.00;5023393;28;20646;-69
2023/03/28 08:21:37;;;;;;;2.80;1.90;;;23.00;49.20;;;22.66;nan;101842.56;4990333;28;21180;-68
2023/03/28 08:24:06;;;;;;;3.30;1.40;;;23.70;48.00;;;23.20;nan;101841.22;5002861;28;20953;-68
2023/03/28 08:26:33;;;;;;;2.53;1.37;;;24.30;47.00;;;23.76;nan;101846.66;5011722;28;20727;-68
2023/03/28 08:29:01;;;;;;;2.00;1.30;;;24.90;46.20;;;24.51;nan;101838.22;5011300;28;20624;-68
2023/03/28 08:31:28;;;;;;;2.23;1.80;;;25.50;45.50;;;25.38;nan;101845.19;5011107;28;20637;-68
2023/03/28 08:33:56;;;;;;;2.40;1.47;;;26.40;44.50;;;25.51;nan;101850.81;5012421;28;21051;-69
2023/03/28 08:36:26;;;;;;;2.80;1.20;;;26.70;44.00;;;25.81;nan;101857.91;5011359;28;20657;-68
2023/03/28 08:38:59;;;;;;;5.53;2.23;;;26.90;42.90;;;23.24;nan;101850.56;5012829;28;21363;-68
2023/03/28 08:42:18;;;;;;;2.23;1.40;;;25.00;43.10;;;22.98;nan;101848.81;5011070;28;20637;-68
2023/03/28 08:44:58;;;;;;;1.27;1.10;;;24.20;43.20;;;23.52;nan;101851.97;5004896;28;20669;-70
2023/03/28 08:47:30;;;;;;;2.97;1.50;;;24.60;42.90;;;24.72;nan;101860.84;5010636;28;21312;-68
2023/03/28 08:50:27;;;;;;;5.33;1.30;;;25.20;43.10;;;25.70;nan;101866.38;5027053;28;21102;-68
2023/03/28 08:52:54;;;;;;;2.97;1.27;;;26.40;42.40;;;26.73;nan;101859.34;5024951;28;20630;-69
2023/03/28 08:55:37;;;;;;;1.77;1.40;;;27.30;41.50;;;26.64;nan;101858.59;5008565;28;21074;-67
2023/03/28 08:58:05;;;;;;;2.20;1.20;;;27.60;40.40;;;27.45;nan;101863.75;5009806;28;20673;-68
2023/03/28 09:00:38;;;;;;;1.73;1.63;;;28.10;39.80;;;28.42;nan;101868.31;5009967;28;20622;-68
2023/03/28 09:03:16;;;;;;;1.20;1.20;;;29.00;39.70;;;29.47;nan;101862.59;5011081;28;20621;-69
2023/03/28 09:06:00;;;;;;;1.73;1.50;;;30.10;38.30;;;29.57;nan;101863.84;5011287;28;21226;-69
2023/03/28 09:08:35;;;;;;;1.30;1.20;;;30.40;37.60;;;29.84;nan;101870.09;5010565;28;20629;-68
2023/03/28 09:11:15;;;;;;;2.37;1.50;;;30.70;37.50;;;30.11;nan;101861.00;5008598;28;20640;-69
2023/03/28 09:14:07;;;;;;;1.63;1.53;;;31.00;37.40;;;30.23;nan;101861.16;5010546;28;20648;-69
2023/03/28 09:17:12;;;;;;;2.37;1.10;;;31.40;37.10;;;31.00;nan;101853.94;5006668;28;20664;-69
2023/03/28 09:20:10;;;;;;;1.77;1.13;;;32.10;35.70;;;31.35;nan;101857.03;5006893;28;20655;-69
2023/03/28 09:23:08;;;;;;;1.43;1.10;;;32.50;35.10;;;31.24;nan;101855.06;5009731;28;21199;-69
2023/03/28 09:26:10;;;;;;;1.37;1.23;;;32.20;35.00;;;31.59;nan;101850.06;5007952;28;21035;-69
2023/03/28 09:29:10;;;;;;;1.57;1.00;;;32.40;34.60;;;31.45;nan;101857.44;5010693;28;20690;-69
2023/03/28 09:31:44;;;;;;;1.77;1.20;;;32.50;34.50;;;31.10;nan;101845.38;5011193;28;20619;-68
2023/03/28 09:34:19;;;;;;;1.83;1.10;;;32.40;33.80;;;31.54;nan;101841.81;5009954;28;21213;-69
2023/03/28 09:36:49;;;;;;;0.90;0.90;;;32.40;33.70;;;30.86;nan;101832.66;5011015;28;20651;-69
2023/03/28 09:39:32;;;;;;;1.67;1.20;;;32.00;33.20;;;29.57;nan;101825.34;5021612;28;20632;-69
2023/03/28 09:42:11;;;;;;;4.43;0.90;;;30.90;33.20;;;30.11;nan;101825.16;5008728;28;20645;-69
2023/03/28 09:45:18;;;;;;;0.80;0.80;;;31.10;33.60;;;29.84;nan;101830.56;5009851;28;20621;-69
2023/03/28 09:47:48;;;;;;;1.07;0.87;;;30.90;33.30;;;28.15;nan;101804.72;5009592;28;20669;-69
2023/03/28 09:50:17;;;;;;;1.53;1.00;;;29.40;33.40;;;27.46;nan;101809.13;5009378;28;20637;-68
2023/03/28 09:52:45;;;;;;;1.57;1.10;;;28.50;34.10;;;27.96;nan;101810.75;5003693;28;20681;-69
2023/03/28 09:55:26;;;;;;;1.77;1.00;;;28.60;33.90;;;27.86;nan;101809.44;5009839;28;21269;-68
2023/03/28 09:58:10;;;;;;;1.80;1.30;;;28.60;33.80;;;27.03;nan;101814.59;5010167;28;20679;-69
2023/03/28 10:00:49;;;;;;;1.17;1.07;;;27.90;34.60;;;26.61;nan;101802.75;5013322;28;21276;-68
2023/03/28 10:03:33;;;;;;;1.00;0.90;;;27.20;35.10;;;27.46;nan;101808.28;5015026;28;20648;-68
2023/03/28 10:06:24;;;;;;;2.00;1.27;;;27.90;35.20;;;28.15;nan;101804.72;5026327;28;20680;-68
2023/03/28 10:08:51;;;;;;;2.63;0.90;;;28.70;35.00;;;28.73;nan;101813.34;5014570;28;20641;-68
2023/03/28 10:11:22;;;;;;;1.83;1.10;;;29.40;34.90;;;28.37;nan;101810.84;5014543;28;20716;-69
2023/03/28 10:13:51;;;;;;;2.17;1.40;;;29.30;34.20;;;28.03;nan;101811.69;5010282;28;20638;-68
2023/03/28 10:16:39;;;;;;;1.90;1.20;;;28.80;34.60;;;28.42;nan;101811.94;5013601;28;20688;-68
2023/03/28 10:19:12;;;;;;;4.40;1.37;;;29.20;34.40;;;26.79;nan;101811.25;5028914;28;20696;-69
2023/03/28 10:21:39;;;;;;;1.60;1.43;;;27.90;35.00;;;25.91;nan;101799.66;5028754;28;20637;-68
2023/03/28 10:24:12;;;;;;;1.27;1.23;;;26.90;35.40;;;26.37;nan;101799.53;5011956;28;21219;-70
2023/03/28 10:26:39;;;;;;;1.10;1.10;;;27.00;35.90;;;27.20;nan;101798.09;4995622;28;20731;-67
2023/03/28 10:29:09;;;;;;;2.77;1.60;;;27.70;35.50;;;27.49;nan;101802.56;5009739;28;21310;-70
2023/03/28 10:31:37;;;;;;;1.77;1.00;;;28.20;35.20;;;27.11;nan;101801.91;4993935;28;20587;-69
2023/03/28 10:34:07;;;;;;;2.10;1.40;;;27.90;35.10;;;26.36;nan;101790.69;5013772;28;20623;-70
2023/03/28 10:36:42;;;;;;;1.93;1.10;;;26.90;35.40;;;25.10;nan;101794.13;5013393;28;21026;-69
2023/03/28 10:39:27;;;;;;;3.10;1.10;;;25.40;35.60;;;24.46;nan;101789.91;5012494;28;20636;-70
2023/03/28 10:41:57;;;;;;;1.23;1.10;;;24.50;36.70;;;23.02;nan;101783.59;5003888;28;20626;-70
2023/03/28 10:44:30;;;;;;;1.40;1.10;;;23.20;37.90;;;21.07;nan;101791.44;4994762;28;20673;-68
2023/03/28 10:47:11;;;;;;;2.70;1.40;;;21.40;40.00;;;19.86;nan;101774.75;5009228;28;20674;-68
2023/03/28 10:49:44;;;;;;;0.93;0.93;;;20.10;41.50;;;18.09;nan;101770.50;5011472;28;20626;-70
2023/03/28 10:52:31;;;;;;;1.33;0.77;;;18.40;43.40;;;17.15;nan;101773.13;5012081;28;20625;-69
2023/03/28 10:55:16;;;;;;;0.93;0.70;;;17.30;45.10;;;15.88;nan;101769.22;5008781;28;20666;-69
2023/03/28 10:58:03;;;;;;;3.30;1.13;;;16.10;46.10;;;15.60;nan;101761.72;5000021;28;21206;-68
2023/03/28 11:00:58;;;;;;;0.67;0.67;;;15.60;47.40;;;15.21;nan;101755.81;5006165;28;21002;-69